sensor_id;sensor_type;location;lat;lon;timestamp;temperature;humidity
75262;DHT22;63859;51.064;4.580;2023-03-01T00:01:59;0.80;99.90
75262;DHT22;63859;51.064;4.580;2023-03-01T00:04:24;0.80;99.90
75262;DHT22;63859;51.064;4.580;2023-03-01T00:06:50;0.80;99.90
75262;DHT22;63859;51.064;4.580;2023-03-01T00:09:16;0.80;99.90
75262;DHT22;63859;51.064;4.580;2023-03-01T00:11:42;0.80;99.90
75262;DHT22;63859;51.064;4.580;2023-03-01T00:14:08;0.80;99.90
75262;DHT22;63859;51.064;4.580;2023-03-01T00:16:39;0.70;99.90
75262;DHT22;63859;51.064;4.580;2023-03-01T00:19:12;0.70;99.90
75262;DHT22;63859;51.064;4.580;2023-03-01T00:21:38;0.70;99.90
75262;DHT22;63859;51.064;4.580;2023-03-01T00:24:06;0.80;99.90
75262;DHT22;63859;51.064;4.580;2023-03-01T00:26:32;0.70;99.90
75262;DHT22;63859;51.064;4.580;2023-03-01T00:28:58;0.70;99.90
75262;DHT22;63859;51.064;4.580;2023-03-01T00:31:26;0.70;99.90
75262;DHT22;63859;51.064;4.580;2023-03-01T00:33:54;0.70;99.90
75262;DHT22;63859;51.064;4.580;2023-03-01T00:36:24;0.70;99.90
75262;DHT22;63859;51.064;4.580;2023-03-01T00:38:50;0.70;99.90
75262;DHT22;63859;51.064;4.580;2023-03-01T00:41:17;0.70;99.90
75262;DHT22;63859;51.064;4.580;2023-03-01T00:43:43;0.70;99.90
75262;DHT22;63859;51.064;4.580;2023-03-01T00:46:18;0.70;99.90
75262;DHT22;63859;51.064;4.580;2023-03-01T00:48:45;0.60;99.90
75262;DHT22;63859;51.064;4.580;2023-03-01T00:51:13;0.60;99.90
75262;DHT22;63859;51.064;4.580;2023-03-01T00:53:40;0.60;99.90
75262;DHT22;63859;51.064;4.580;2023-03-01T00:56:07;0.60;99.90
75262;DHT22;63859;51.064;4.580;2023-03-01T00:58:33;0.60;99.90
75262;DHT22;63859;51.064;4.580;2023-03-01T01:00:59;0.50;99.90
75262;DHT22;63859;51.064;4.580;2023-03-01T01:03:25;0.50;99.90
75262;DHT22;63859;51.064;4.580;2023-03-01T01:05:52;0.50;99.90
75262;DHT22;63859;51.064;4.580;2023-03-01T01:08:19;0.50;99.90
75262;DHT22;63859;51.064;4.580;2023-03-01T01:10:45;0.50;99.90
75262;DHT22;63859;51.064;4.580;2023-03-01T01:13:11;0.50;99.90
75262;DHT22;63859;51.064;4.580;2023-03-01T01:15:38;0.40;99.90
75262;DHT22;63859;51.064;4.580;2023-03-01T01:18:03;0.40;99.90
75262;DHT22;63859;51.064;4.580;2023-03-01T01:20:29;0.40;99.90
75262;DHT22;63859;51.064;4.580;2023-03-01T01:22:55;0.40;99.90
75262;DHT22;63859;51.064;4.580;2023-03-01T01:25:21;0.40;99.90
75262;DHT22;63859;51.064;4.580;2023-03-01T01:27:46;0.30;99.90
75262;DHT22;63859;51.064;4.580;2023-03-01T01:30:12;0.30;99.90
75262;DHT22;63859;51.064;4.580;2023-03-01T01:32:38;0.30;99.90
75262;DHT22;63859;51.064;4.580;2023-03-01T01:35:04;0.30;99.90
75262;DHT22;63859;51.064;4.580;2023-03-01T01:37:30;0.30;99.90
75262;DHT22;63859;51.064;4.580;2023-03-01T01:39:58;0.20;99.90
75262;DHT22;63859;51.064;4.580;2023-03-01T01:42:24;0.30;99.90
75262;DHT22;63859;51.064;4.580;2023-03-01T01:45:27;0.20;99.90
75262;DHT22;63859;51.064;4.580;2023-03-01T01:47:55;0.30;99.90
75262;DHT22;63859;51.064;4.580;2023-03-01T01:50:23;0.20;99.90
75262;DHT22;63859;51.064;4.580;2023-03-01T01:52:50;0.20;99.90
75262;DHT22;63859;51.064;4.580;2023-03-01T01:55:24;0.20;99.90
75262;DHT22;63859;51.064;4.580;2023-03-01T01:57:56;0.20;99.90
75262;DHT22;63859;51.064;4.580;2023-03-01T02:00:26;0.20;99.90
75262;DHT22;63859;51.064;4.580;2023-03-01T02:02:57;0.20;99.90
75262;DHT22;63859;51.064;4.580;2023-03-01T02:05:43;0.20;99.90
75262;DHT22;63859;51.064;4.580;2023-03-01T02:08:12;0.10;99.90
75262;DHT22;63859;51.064;4.580;2023-03-01T02:10:38;0.10;99.90
75262;DHT22;63859;51.064;4.580;2023-03-01T02:13:05;0.10;99.90
75262;DHT22;63859;51.064;4.580;2023-03-01T02:15:35;0.10;99.90
75262;DHT22;63859;51.064;4.580;2023-03-01T02:18:02;0.10;99.90
75262;DHT22;63859;51.064;4.580;2023-03-01T02:22:56;0.10;99.90
75262;DHT22;63859;51.064;4.580;2023-03-01T02:25:24;0.10;99.90
75262;DHT22;63859;51.064;4.580;2023-03-01T02:30:46;0.00;99.90
75262;DHT22;63859;51.064;4.580;2023-03-01T02:33:33;0.00;99.90
75262;DHT22;63859;51.064;4.580;2023-03-01T02:36:04;0.00;99.90
75262;DHT22;63859;51.064;4.580;2023-03-01T02:38:31;-0.10;99.90
75262;DHT22;63859;51.064;4.580;2023-03-01T02:40:57;-0.10;99.90
75262;DHT22;63859;51.064;4.580;2023-03-01T02:43:27;-0.10;99.90
75262;DHT22;63859;51.064;4.580;2023-03-01T02:45:58;-0.10;99.90
75262;DHT22;63859;51.064;4.580;2023-03-01T02:48:24;-0.20;99.90
75262;DHT22;63859;51.064;4.580;2023-03-01T02:51:09;-0.20;99.90
75262;DHT22;63859;51.064;4.580;2023-03-01T02:56:34;-0.20;99.90
75262;DHT22;63859;51.064;4.580;2023-03-01T02:59:00;-0.20;99.90
75262;DHT22;63859;51.064;4.580;2023-03-01T03:01:27;-0.20;99.90
75262;DHT22;63859;51.064;4.580;2023-03-01T03:04:03;-0.30;99.90
75262;DHT22;63859;51.064;4.580;2023-03-01T03:06:29;-0.30;99.90
75262;DHT22;63859;51.064;4.580;2023-03-01T03:08:55;-0.30;99.90
75262;DHT22;63859;51.064;4.580;2023-03-01T03:11:20;-0.30;99.90
75262;DHT22;63859;51.064;4.580;2023-03-01T03:13:46;-0.30;99.90
75262;DHT22;63859;51.064;4.580;2023-03-01T03:16:14;-0.30;99.90
75262;DHT22;63859;51.064;4.580;2023-03-01T03:18:39;-0.40;99.90
75262;DHT22;63859;51.064;4.580;2023-03-01T03:21:08;-0.30;99.90
75262;DHT22;63859;51.064;4.580;2023-03-01T03:23:35;-0.30;99.90
75262;DHT22;63859;51.064;4.580;2023-03-01T03:26:01;-0.30;99.90
75262;DHT22;63859;51.064;4.580;2023-03-01T03:28:32;-0.50;99.90
75262;DHT22;63859;51.064;4.580;2023-03-01T03:30:59;-0.40;99.90
75262;DHT22;63859;51.064;4.580;2023-03-01T03:33:29;-0.40;99.90
75262;DHT22;63859;51.064;4.580;2023-03-01T03:35:55;-0.50;99.90
75262;DHT22;63859;51.064;4.580;2023-03-01T03:38:21;-0.50;99.90
75262;DHT22;63859;51.064;4.580;2023-03-01T03:40:52;-0.50;99.90
75262;DHT22;63859;51.064;4.580;2023-03-01T03:43:26;-0.50;99.90
75262;DHT22;63859;51.064;4.580;2023-03-01T03:45:52;-0.50;99.90
75262;DHT22;63859;51.064;4.580;2023-03-01T03:48:18;-0.50;99.90
75262;DHT22;63859;51.064;4.580;2023-03-01T03:50:49;-0.60;99.90
75262;DHT22;63859;51.064;4.580;2023-03-01T03:53:15;-0.60;99.90
75262;DHT22;63859;51.064;4.580;2023-03-01T03:55:41;-0.60;99.90
75262;DHT22;63859;51.064;4.580;2023-03-01T03:58:08;-0.60;99.90
75262;DHT22;63859;51.064;4.580;2023-03-01T04:00:40;-0.70;99.90
75262;DHT22;63859;51.064;4.580;2023-03-01T04:03:06;-0.70;99.90
75262;DHT22;63859;51.064;4.580;2023-03-01T04:05:32;-0.70;99.90
75262;DHT22;63859;51.064;4.580;2023-03-01T04:07:58;-0.70;99.90
75262;DHT22;63859;51.064;4.580;2023-03-01T04:10:42;-0.70;99.90
75262;DHT22;63859;51.064;4.580;2023-03-01T04:13:11;-0.70;99.90
75262;DHT22;63859;51.064;4.580;2023-03-01T04:15:37;-0.70;99.90
75262;DHT22;63859;51.064;4.580;2023-03-01T04:18:04;-0.70;99.90
75262;DHT22;63859;51.064;4.580;2023-03-01T04:20:32;-0.70;99.90
75262;DHT22;63859;51.064;4.580;2023-03-01T04:23:04;-0.80;99.90
75262;DHT22;63859;51.064;4.580;2023-03-01T04:25:40;-0.80;99.90
75262;DHT22;63859;51.064;4.580;2023-03-01T04:28:07;-0.80;99.90
75262;DHT22;63859;51.064;4.580;2023-03-01T04:30:33;-0.80;99.90
75262;DHT22;63859;51.064;4.580;2023-03-01T04:33:05;-0.80;99.90
75262;DHT22;63859;51.064;4.580;2023-03-01T04:35:32;-0.80;99.90
75262;DHT22;63859;51.064;4.580;2023-03-01T04:37:57;-0.80;99.90
75262;DHT22;63859;51.064;4.580;2023-03-01T04:40:23;-0.80;99.90
75262;DHT22;63859;51.064;4.580;2023-03-01T04:42:49;-0.80;99.90
75262;DHT22;63859;51.064;4.580;2023-03-01T04:45:15;-0.80;99.90
75262;DHT22;63859;51.064;4.580;2023-03-01T04:47:42;-0.80;99.90
75262;DHT22;63859;51.064;4.580;2023-03-01T04:50:14;-0.80;99.90
75262;DHT22;63859;51.064;4.580;2023-03-01T04:52:40;-0.90;99.90
75262;DHT22;63859;51.064;4.580;2023-03-01T04:55:06;-0.90;99.90
75262;DHT22;63859;51.064;4.580;2023-03-01T04:57:32;-0.90;99.90
75262;DHT22;63859;51.064;4.580;2023-03-01T04:59:58;-0.90;99.90
75262;DHT22;63859;51.064;4.580;2023-03-01T05:02:24;-0.80;99.90
75262;DHT22;63859;51.064;4.580;2023-03-01T05:04:49;-0.90;99.90
75262;DHT22;63859;51.064;4.580;2023-03-01T05:07:15;-0.90;99.90
75262;DHT22;63859;51.064;4.580;2023-03-01T05:09:45;-0.90;99.90
75262;DHT22;63859;51.064;4.580;2023-03-01T05:12:12;-0.90;99.90
75262;DHT22;63859;51.064;4.580;2023-03-01T05:14:38;-0.90;99.90
75262;DHT22;63859;51.064;4.580;2023-03-01T05:17:04;-0.90;99.90
75262;DHT22;63859;51.064;4.580;2023-03-01T05:19:30;-0.90;99.90
75262;DHT22;63859;51.064;4.580;2023-03-01T05:21:57;-0.90;99.90
75262;DHT22;63859;51.064;4.580;2023-03-01T05:24:34;-1.00;99.90
75262;DHT22;63859;51.064;4.580;2023-03-01T05:27:00;-1.00;99.90
75262;DHT22;63859;51.064;4.580;2023-03-01T05:29:28;-1.00;99.90
75262;DHT22;63859;51.064;4.580;2023-03-01T05:31:58;-1.10;99.90
75262;DHT22;63859;51.064;4.580;2023-03-01T05:34:33;-1.00;99.90
75262;DHT22;63859;51.064;4.580;2023-03-01T05:36:59;-1.10;99.90
75262;DHT22;63859;51.064;4.580;2023-03-01T05:39:26;-1.10;99.90
75262;DHT22;63859;51.064;4.580;2023-03-01T05:41:54;-1.10;99.90
75262;DHT22;63859;51.064;4.580;2023-03-01T05:44:20;-1.10;99.90
75262;DHT22;63859;51.064;4.580;2023-03-01T05:46:46;-1.10;99.90
75262;DHT22;63859;51.064;4.580;2023-03-01T05:49:13;-1.10;99.90
75262;DHT22;63859;51.064;4.580;2023-03-01T05:51:40;-1.10;99.90
75262;DHT22;63859;51.064;4.580;2023-03-01T05:54:05;-1.10;99.90
75262;DHT22;63859;51.064;4.580;2023-03-01T05:56:33;-1.10;99.90
75262;DHT22;63859;51.064;4.580;2023-03-01T05:58:59;-1.10;99.90
75262;DHT22;63859;51.064;4.580;2023-03-01T06:01:25;-1.10;99.90
75262;DHT22;63859;51.064;4.580;2023-03-01T06:03:51;-1.10;99.90
75262;DHT22;63859;51.064;4.580;2023-03-01T06:06:17;-1.10;99.90
75262;DHT22;63859;51.064;4.580;2023-03-01T06:08:42;-1.10;99.90
75262;DHT22;63859;51.064;4.580;2023-03-01T06:11:08;-1.10;99.90
75262;DHT22;63859;51.064;4.580;2023-03-01T06:13:34;-1.10;99.90
75262;DHT22;63859;51.064;4.580;2023-03-01T06:15:59;-1.10;99.90
75262;DHT22;63859;51.064;4.580;2023-03-01T06:18:25;-1.20;99.90
75262;DHT22;63859;51.064;4.580;2023-03-01T06:20:54;-1.10;99.90
75262;DHT22;63859;51.064;4.580;2023-03-01T06:23:20;-1.10;99.90
75262;DHT22;63859;51.064;4.580;2023-03-01T06:25:45;-1.10;99.90
75262;DHT22;63859;51.064;4.580;2023-03-01T06:28:11;-1.10;99.90
75262;DHT22;63859;51.064;4.580;2023-03-01T06:30:37;-1.20;99.90
75262;DHT22;63859;51.064;4.580;2023-03-01T06:33:02;-1.20;99.90
75262;DHT22;63859;51.064;4.580;2023-03-01T06:35:31;-1.10;99.90
75262;DHT22;63859;51.064;4.580;2023-03-01T06:37:58;-1.10;99.90
75262;DHT22;63859;51.064;4.580;2023-03-01T06:40:24;-1.10;99.90
75262;DHT22;63859;51.064;4.580;2023-03-01T06:42:51;-1.10;99.90
75262;DHT22;63859;51.064;4.580;2023-03-01T06:45:18;-1.10;99.90
75262;DHT22;63859;51.064;4.580;2023-03-01T06:47:44;-1.10;99.90
75262;DHT22;63859;51.064;4.580;2023-03-01T06:50:11;-1.10;99.90
75262;DHT22;63859;51.064;4.580;2023-03-01T06:52:37;-1.10;99.90
75262;DHT22;63859;51.064;4.580;2023-03-01T06:55:03;-1.10;99.90
75262;DHT22;63859;51.064;4.580;2023-03-01T06:57:29;-1.10;99.90
75262;DHT22;63859;51.064;4.580;2023-03-01T06:59:55;-1.10;99.90
75262;DHT22;63859;51.064;4.580;2023-03-01T07:02:20;-1.10;99.90
75262;DHT22;63859;51.064;4.580;2023-03-01T07:04:46;-1.10;99.90
75262;DHT22;63859;51.064;4.580;2023-03-01T07:07:12;-1.00;99.90
75262;DHT22;63859;51.064;4.580;2023-03-01T07:09:37;-1.00;99.90
75262;DHT22;63859;51.064;4.580;2023-03-01T07:12:03;-0.90;99.90
75262;DHT22;63859;51.064;4.580;2023-03-01T07:14:29;-0.90;99.90
75262;DHT22;63859;51.064;4.580;2023-03-01T07:16:55;-0.90;99.90
75262;DHT22;63859;51.064;4.580;2023-03-01T07:19:21;-0.90;99.90
75262;DHT22;63859;51.064;4.580;2023-03-01T07:21:47;-0.90;99.90
75262;DHT22;63859;51.064;4.580;2023-03-01T07:24:13;-0.90;99.90
75262;DHT22;63859;51.064;4.580;2023-03-01T07:26:38;-0.80;99.90
75262;DHT22;63859;51.064;4.580;2023-03-01T07:29:06;-0.80;99.90
75262;DHT22;63859;51.064;4.580;2023-03-01T07:31:32;-0.80;99.90
75262;DHT22;63859;51.064;4.580;2023-03-01T07:33:58;-0.80;99.90
75262;DHT22;63859;51.064;4.580;2023-03-01T07:36:24;-0.80;99.90
75262;DHT22;63859;51.064;4.580;2023-03-01T07:38:50;-0.80;99.90
75262;DHT22;63859;51.064;4.580;2023-03-01T07:41:16;-0.70;99.90
75262;DHT22;63859;51.064;4.580;2023-03-01T07:43:41;-0.70;99.90
75262;DHT22;63859;51.064;4.580;2023-03-01T07:46:07;-0.60;99.90
75262;DHT22;63859;51.064;4.580;2023-03-01T07:48:33;-0.50;99.90
75262;DHT22;63859;51.064;4.580;2023-03-01T07:51:03;-0.50;99.90
75262;DHT22;63859;51.064;4.580;2023-03-01T07:53:30;-0.50;99.90
75262;DHT22;63859;51.064;4.580;2023-03-01T07:58:31;-0.40;99.90
75262;DHT22;63859;51.064;4.580;2023-03-01T08:01:04;-0.40;99.90
75262;DHT22;63859;51.064;4.580;2023-03-01T08:03:30;-0.30;99.90
75262;DHT22;63859;51.064;4.580;2023-03-01T08:05:58;-0.30;99.90
75262;DHT22;63859;51.064;4.580;2023-03-01T08:08:24;-0.20;99.90
75262;DHT22;63859;51.064;4.580;2023-03-01T08:10:50;-0.10;99.90
75262;DHT22;63859;51.064;4.580;2023-03-01T08:13:15;-0.10;99.90
75262;DHT22;63859;51.064;4.580;2023-03-01T08:15:41;-0.10;99.90
75262;DHT22;63859;51.064;4.580;2023-03-01T08:18:07;0.00;99.90
75262;DHT22;63859;51.064;4.580;2023-03-01T08:20:32;0.10;99.90
75262;DHT22;63859;51.064;4.580;2023-03-01T08:22:58;0.10;99.90
75262;DHT22;63859;51.064;4.580;2023-03-01T08:25:24;0.20;99.90
75262;DHT22;63859;51.064;4.580;2023-03-01T08:27:49;0.20;99.90
75262;DHT22;63859;51.064;4.580;2023-03-01T08:30:15;0.30;99.90
75262;DHT22;63859;51.064;4.580;2023-03-01T08:32:40;0.30;99.90
75262;DHT22;63859;51.064;4.580;2023-03-01T08:35:06;0.40;99.90
75262;DHT22;63859;51.064;4.580;2023-03-01T08:37:32;0.50;99.90
75262;DHT22;63859;51.064;4.580;2023-03-01T08:39:59;0.60;99.90
75262;DHT22;63859;51.064;4.580;2023-03-01T08:42:25;0.60;99.90
75262;DHT22;63859;51.064;4.580;2023-03-01T08:44:51;0.70;99.90
75262;DHT22;63859;51.064;4.580;2023-03-01T08:47:17;0.70;99.90
75262;DHT22;63859;51.064;4.580;2023-03-01T08:49:42;0.80;99.90
75262;DHT22;63859;51.064;4.580;2023-03-01T08:52:08;0.90;99.90
75262;DHT22;63859;51.064;4.580;2023-03-01T08:54:33;1.00;99.90
75262;DHT22;63859;51.064;4.580;2023-03-01T08:57:02;1.00;99.90
75262;DHT22;63859;51.064;4.580;2023-03-01T08:59:27;1.10;99.90
75262;DHT22;63859;51.064;4.580;2023-03-01T09:01:55;1.20;99.90
75262;DHT22;63859;51.064;4.580;2023-03-01T09:04:21;1.30;99.90
75262;DHT22;63859;51.064;4.580;2023-03-01T09:06:47;1.30;99.90
75262;DHT22;63859;51.064;4.580;2023-03-01T09:09:15;1.40;99.90
75262;DHT22;63859;51.064;4.580;2023-03-01T09:11:44;1.50;99.90
75262;DHT22;63859;51.064;4.580;2023-03-01T09:14:12;1.60;99.90
75262;DHT22;63859;51.064;4.580;2023-03-01T09:16:38;1.60;99.90
75262;DHT22;63859;51.064;4.580;2023-03-01T09:19:04;1.70;99.90
75262;DHT22;63859;51.064;4.580;2023-03-01T09:21:30;1.80;99.90
75262;DHT22;63859;51.064;4.580;2023-03-01T09:23:56;1.90;99.90
75262;DHT22;63859;51.064;4.580;2023-03-01T09:26:23;2.00;99.90
75262;DHT22;63859;51.064;4.580;2023-03-01T09:28:52;2.10;99.90
75262;DHT22;63859;51.064;4.580;2023-03-01T09:31:23;2.10;99.90
75262;DHT22;63859;51.064;4.580;2023-03-01T09:33:51;2.20;99.90
75262;DHT22;63859;51.064;4.580;2023-03-01T09:36:20;2.20;99.90
75262;DHT22;63859;51.064;4.580;2023-03-01T09:38:47;2.40;99.90
75262;DHT22;63859;51.064;4.580;2023-03-01T09:46:45;2.50;99.90
75262;DHT22;63859;51.064;4.580;2023-03-01T09:49:17;2.60;99.90
75262;DHT22;63859;51.064;4.580;2023-03-01T09:54:36;2.60;99.90
75262;DHT22;63859;51.064;4.580;2023-03-01T10:04:50;2.90;99.90
75262;DHT22;63859;51.064;4.580;2023-03-01T10:10:08;3.10;99.90
75262;DHT22;63859;51.064;4.580;2023-03-01T10:12:40;3.20;99.90
75262;DHT22;63859;51.064;4.580;2023-03-01T10:15:15;3.30;99.90
75262;DHT22;63859;51.064;4.580;2023-03-01T10:18:02;3.30;99.90
75262;DHT22;63859;51.064;4.580;2023-03-01T10:20:47;3.40;99.90
75262;DHT22;63859;51.064;4.580;2023-03-01T10:23:15;3.40;99.90
75262;DHT22;63859;51.064;4.580;2023-03-01T10:31:19;3.60;99.90
75262;DHT22;63859;51.064;4.580;2023-03-01T10:33:45;3.80;99.90
75262;DHT22;63859;51.064;4.580;2023-03-01T10:36:13;4.00;99.90
75262;DHT22;63859;51.064;4.580;2023-03-01T10:38:54;3.90;99.90
75262;DHT22;63859;51.064;4.580;2023-03-01T10:41:21;4.00;99.90
75262;DHT22;63859;51.064;4.580;2023-03-01T10:43:57;4.00;99.90
75262;DHT22;63859;51.064;4.580;2023-03-01T10:46:27;4.10;99.90
75262;DHT22;63859;51.064;4.580;2023-03-01T10:51:39;4.20;99.90
75262;DHT22;63859;51.064;4.580;2023-03-01T10:54:13;4.30;99.90
75262;DHT22;63859;51.064;4.580;2023-03-01T10:56:53;4.40;99.90
75262;DHT22;63859;51.064;4.580;2023-03-01T10:59:31;4.40;99.90
75262;DHT22;63859;51.064;4.580;2023-03-01T11:02:14;4.50;99.90
75262;DHT22;63859;51.064;4.580;2023-03-01T11:04:57;4.60;99.90
75262;DHT22;63859;51.064;4.580;2023-03-01T11:07:22;4.80;99.90
75262;DHT22;63859;51.064;4.580;2023-03-01T11:09:48;4.90;99.90
75262;DHT22;63859;51.064;4.580;2023-03-01T11:12:16;4.90;99.90
75262;DHT22;63859;51.064;4.580;2023-03-01T11:14:53;5.00;99.90
75262;DHT22;63859;51.064;4.580;2023-03-01T11:17:28;5.10;99.90
75262;DHT22;63859;51.064;4.580;2023-03-01T11:20:25;5.20;99.90
75262;DHT22;63859;51.064;4.580;2023-03-01T11:23:12;5.30;99.90
75262;DHT22;63859;51.064;4.580;2023-03-01T11:25:58;5.40;99.90
75262;DHT22;63859;51.064;4.580;2023-03-01T11:28:26;5.50;99.90
75262;DHT22;63859;51.064;4.580;2023-03-01T11:31:06;5.60;99.90
75262;DHT22;63859;51.064;4.580;2023-03-01T11:33:47;5.80;99.90
75262;DHT22;63859;51.064;4.580;2023-03-01T11:36:32;6.00;99.90
75262;DHT22;63859;51.064;4.580;2023-03-01T11:42:00;6.20;99.90
75262;DHT22;63859;51.064;4.580;2023-03-01T11:44:29;6.60;99.90
75262;DHT22;63859;51.064;4.580;2023-03-01T11:47:18;6.60;99.90
75262;DHT22;63859;51.064;4.580;2023-03-01T11:52:48;7.00;99.90
75262;DHT22;63859;51.064;4.580;2023-03-01T12:01:11;7.20;99.90
75262;DHT22;63859;51.064;4.580;2023-03-01T12:06:33;7.60;99.90
75262;DHT22;63859;51.064;4.580;2023-03-01T12:09:30;7.70;99.90
75262;DHT22;63859;51.064;4.580;2023-03-01T12:20:35;8.10;99.90
75262;DHT22;63859;51.064;4.580;2023-03-01T12:23:20;8.20;99.90
75262;DHT22;63859;51.064;4.580;2023-03-01T12:50:18;9.60;93.70
75262;DHT22;63859;51.064;4.580;2023-03-01T12:52:56;9.50;92.40
75262;DHT22;63859;51.064;4.580;2023-03-01T12:55:35;9.50;92.00
75262;DHT22;63859;51.064;4.580;2023-03-01T13:09:45;10.00;89.10
75262;DHT22;63859;51.064;4.580;2023-03-01T13:18:00;10.20;83.10
75262;DHT22;63859;51.064;4.580;2023-03-01T13:20:46;10.10;82.70
75262;DHT22;63859;51.064;4.580;2023-03-01T13:31:04;10.70;79.40
75262;DHT22;63859;51.064;4.580;2023-03-01T13:35:57;10.90;78.90
75262;DHT22;63859;51.064;4.580;2023-03-01T13:41:12;11.00;77.20
75262;DHT22;63859;51.064;4.580;2023-03-01T13:43:41;11.00;76.80
75262;DHT22;63859;51.064;4.580;2023-03-01T13:46:23;11.00;76.40
75262;DHT22;63859;51.064;4.580;2023-03-01T13:48:55;11.00;75.20
75262;DHT22;63859;51.064;4.580;2023-03-01T13:51:25;11.00;75.70
75262;DHT22;63859;51.064;4.580;2023-03-01T13:53:51;11.00;75.00
75262;DHT22;63859;51.064;4.580;2023-03-01T13:56:33;11.10;75.30
75262;DHT22;63859;51.064;4.580;2023-03-01T13:59:19;10.90;74.70
75262;DHT22;63859;51.064;4.580;2023-03-01T14:01:52;11.10;74.10
75262;DHT22;63859;51.064;4.580;2023-03-01T14:04:24;11.10;72.20
75262;DHT22;63859;51.064;4.580;2023-03-01T14:06:51;11.00;71.60
75262;DHT22;63859;51.064;4.580;2023-03-01T14:09:23;11.00;72.10
75262;DHT22;63859;51.064;4.580;2023-03-01T14:12:12;11.00;73.50
75262;DHT22;63859;51.064;4.580;2023-03-01T14:20:32;11.10;73.90
75262;DHT22;63859;51.064;4.580;2023-03-01T14:23:02;11.10;74.10
75262;DHT22;63859;51.064;4.580;2023-03-01T14:25:35;10.90;74.70
75262;DHT22;63859;51.064;4.580;2023-03-01T14:30:43;10.90;73.40
75262;DHT22;63859;51.064;4.580;2023-03-01T14:33:27;10.90;73.50
75262;DHT22;63859;51.064;4.580;2023-03-01T14:36:04;10.90;73.80
75262;DHT22;63859;51.064;4.580;2023-03-01T14:38:37;10.70;72.10
75262;DHT22;63859;51.064;4.580;2023-03-01T14:41:12;10.60;72.00
75262;DHT22;63859;51.064;4.580;2023-03-01T14:43:44;10.40;71.00
75262;DHT22;63859;51.064;4.580;2023-03-01T14:46:26;10.20;71.20
75262;DHT22;63859;51.064;4.580;2023-03-01T14:49:42;10.10;71.60
75262;DHT22;63859;51.064;4.580;2023-03-01T14:51:50;9.90;72.40
75262;DHT22;63859;51.064;4.580;2023-03-01T14:54:25;9.90;73.10
75262;DHT22;63859;51.064;4.580;2023-03-01T14:56:53;9.70;73.90
75262;DHT22;63859;51.064;4.580;2023-03-01T14:59:23;9.70;74.20
75262;DHT22;63859;51.064;4.580;2023-03-01T15:01:50;9.50;74.80
75262;DHT22;63859;51.064;4.580;2023-03-01T15:04:17;9.40;74.20
75262;DHT22;63859;51.064;4.580;2023-03-01T15:06:43;9.10;74.20
75262;DHT22;63859;51.064;4.580;2023-03-01T15:09:14;8.90;75.80
75262;DHT22;63859;51.064;4.580;2023-03-01T15:11:42;8.70;75.80
75262;DHT22;63859;51.064;4.580;2023-03-01T15:16:53;8.50;78.00
75262;DHT22;63859;51.064;4.580;2023-03-01T15:19:19;8.40;78.30
75262;DHT22;63859;51.064;4.580;2023-03-01T15:21:49;8.30;79.20
75262;DHT22;63859;51.064;4.580;2023-03-01T15:24:23;8.30;80.60
75262;DHT22;63859;51.064;4.580;2023-03-01T15:26:58;8.20;80.50
75262;DHT22;63859;51.064;4.580;2023-03-01T15:29:29;8.10;80.80
75262;DHT22;63859;51.064;4.580;2023-03-01T15:32:01;8.10;81.90
75262;DHT22;63859;51.064;4.580;2023-03-01T15:34:37;8.00;82.20
75262;DHT22;63859;51.064;4.580;2023-03-01T15:37:05;7.90;82.20
75262;DHT22;63859;51.064;4.580;2023-03-01T15:41:58;7.80;82.20
75262;DHT22;63859;51.064;4.580;2023-03-01T15:44:30;7.80;81.60
75262;DHT22;63859;51.064;4.580;2023-03-01T15:46:56;7.80;81.50
75262;DHT22;63859;51.064;4.580;2023-03-01T15:51:53;7.70;82.60
75262;DHT22;63859;51.064;4.580;2023-03-01T15:54:22;7.60;83.20
75262;DHT22;63859;51.064;4.580;2023-03-01T15:56:49;7.60;83.30
75262;DHT22;63859;51.064;4.580;2023-03-01T15:59:16;7.60;83.20
75262;DHT22;63859;51.064;4.580;2023-03-01T16:01:43;7.70;83.60
75262;DHT22;63859;51.064;4.580;2023-03-01T16:04:14;7.70;83.70
75262;DHT22;63859;51.064;4.580;2023-03-01T16:06:52;7.70;84.60
75262;DHT22;63859;51.064;4.580;2023-03-01T16:09:24;7.80;85.20
75262;DHT22;63859;51.064;4.580;2023-03-01T16:11:51;8.20;84.60
75262;DHT22;63859;51.064;4.580;2023-03-01T16:14:17;8.40;84.60
75262;DHT22;63859;51.064;4.580;2023-03-01T16:16:44;8.80;83.90
75262;DHT22;63859;51.064;4.580;2023-03-01T16:19:09;9.00;81.90
75262;DHT22;63859;51.064;4.580;2023-03-01T16:21:35;9.20;80.50
75262;DHT22;63859;51.064;4.580;2023-03-01T16:24:01;9.00;80.00
75262;DHT22;63859;51.064;4.580;2023-03-01T16:26:27;8.70;82.10
75262;DHT22;63859;51.064;4.580;2023-03-01T16:28:56;8.50;82.70
75262;DHT22;63859;51.064;4.580;2023-03-01T16:31:22;8.20;82.10
75262;DHT22;63859;51.064;4.580;2023-03-01T16:33:49;7.90;83.40
75262;DHT22;63859;51.064;4.580;2023-03-01T16:36:18;7.70;83.70
75262;DHT22;63859;51.064;4.580;2023-03-01T16:38:44;7.50;84.10
75262;DHT22;63859;51.064;4.580;2023-03-01T16:41:15;7.40;84.30
75262;DHT22;63859;51.064;4.580;2023-03-01T16:43:41;7.20;84.60
75262;DHT22;63859;51.064;4.580;2023-03-01T16:46:28;7.10;85.00
75262;DHT22;63859;51.064;4.580;2023-03-01T16:48:54;7.00;85.50
75262;DHT22;63859;51.064;4.580;2023-03-01T16:51:21;6.90;85.90
75262;DHT22;63859;51.064;4.580;2023-03-01T16:53:47;6.80;86.60
75262;DHT22;63859;51.064;4.580;2023-03-01T16:56:13;6.70;86.70
75262;DHT22;63859;51.064;4.580;2023-03-01T16:58:39;6.70;87.70
75262;DHT22;63859;51.064;4.580;2023-03-01T17:01:12;6.60;88.30
75262;DHT22;63859;51.064;4.580;2023-03-01T17:03:39;6.50;89.00
75262;DHT22;63859;51.064;4.580;2023-03-01T17:06:10;6.50;88.90
75262;DHT22;63859;51.064;4.580;2023-03-01T17:08:37;6.40;89.10
75262;DHT22;63859;51.064;4.580;2023-03-01T17:11:08;6.30;89.90
75262;DHT22;63859;51.064;4.580;2023-03-01T17:13:35;6.20;90.10
75262;DHT22;63859;51.064;4.580;2023-03-01T17:16:03;6.10;90.30
75262;DHT22;63859;51.064;4.580;2023-03-01T17:18:28;6.10;90.60
75262;DHT22;63859;51.064;4.580;2023-03-01T17:20:54;6.10;90.80
75262;DHT22;63859;51.064;4.580;2023-03-01T17:23:20;6.00;91.00
75262;DHT22;63859;51.064;4.580;2023-03-01T17:25:46;5.90;91.40
75262;DHT22;63859;51.064;4.580;2023-03-01T17:28:12;5.90;91.50
75262;DHT22;63859;51.064;4.580;2023-03-01T17:30:43;5.80;91.60
75262;DHT22;63859;51.064;4.580;2023-03-01T17:33:10;5.70;91.70
75262;DHT22;63859;51.064;4.580;2023-03-01T17:35:36;5.60;91.90
75262;DHT22;63859;51.064;4.580;2023-03-01T17:38:03;5.60;92.20
75262;DHT22;63859;51.064;4.580;2023-03-01T17:40:29;5.50;92.40
75262;DHT22;63859;51.064;4.580;2023-03-01T17:42:56;5.50;92.80
75262;DHT22;63859;51.064;4.580;2023-03-01T17:45:22;5.40;92.90
75262;DHT22;63859;51.064;4.580;2023-03-01T17:47:47;5.30;93.10
75262;DHT22;63859;51.064;4.580;2023-03-01T17:50:13;5.20;93.20
75262;DHT22;63859;51.064;4.580;2023-03-01T17:52:39;5.20;93.80
75262;DHT22;63859;51.064;4.580;2023-03-01T17:55:06;5.20;93.90
75262;DHT22;63859;51.064;4.580;2023-03-01T17:57:32;5.10;94.40
75262;DHT22;63859;51.064;4.580;2023-03-01T17:59:58;5.10;94.70
75262;DHT22;63859;51.064;4.580;2023-03-01T18:02:24;5.10;95.10
75262;DHT22;63859;51.064;4.580;2023-03-01T18:04:51;5.00;95.30